Time;durP1;ratioP1;P1;durP2;ratioP2;P2;SDS_P1;SDS_P2;PMS_P1;PMS_P2;Temp;Humidity;BMP_temperature;BMP_pressure;BME280_temperature;BME280_humidity;BME280_pressure;Samples;Min_cycle;Max_cycle;Signal;HPM_P1;HPM_P2
2022/08/01 00:01:36;;;;;;;5.33;3.70;;;22.90;99.90;;;;;;5054131;28;20436;-43
2022/08/01 00:04:04;;;;;;;4.30;4.00;;;22.90;99.90;;;;;;5053167;28;20442;-43
2022/08/01 00:06:33;;;;;;;4.50;4.10;;;22.90;99.90;;;;;;5054488;28;20479;-43
2022/08/01 00:09:00;;;;;;;4.20;3.80;;;22.90;99.90;;;;;;5053811;28;20458;-38
2022/08/01 00:11:28;;;;;;;5.40;4.03;;;22.90;99.90;;;;;;5053622;28;20428;-49
2022/08/01 00:13:55;;;;;;;3.80;3.47;;;22.90;99.90;;;;;;5053588;28;20495;-36
2022/08/01 00:16:23;;;;;;;5.80;4.23;;;22.80;99.90;;;;;;5053342;28;20440;-45
2022/08/01 00:18:50;;;;;;;4.77;4.07;;;22.80;99.90;;;;;;5053308;28;20440;-40
2022/08/01 00:21:20;;;;;;;3.90;3.50;;;22.70;99.90;;;;;;5053634;28;20432;-45
2022/08/01 00:23:48;;;;;;;4.70;4.20;;;22.70;99.90;;;;;;5053151;28;20429;-43
2022/08/01 00:26:15;;;;;;;4.40;4.00;;;22.60;99.90;;;;;;5053927;28;20464;-46
2022/08/01 00:28:46;;;;;;;6.20;3.97;;;22.60;99.90;;;;;;5051632;28;20492;-43
2022/08/01 00:31:13;;;;;;;4.40;3.97;;;22.50;99.90;;;;;;5053320;28;20450;-52
2022/08/01 00:33:40;;;;;;;10.13;4.20;;;22.50;99.90;;;;;;5052723;28;20515;-49
2022/08/01 00:36:07;;;;;;;5.03;3.83;;;22.50;99.90;;;;;;5053849;28;20492;-45
2022/08/01 00:38:33;;;;;;;5.23;4.73;;;22.50;99.90;;;;;;5053812;28;20471;-42
2022/08/01 00:41:00;;;;;;;4.33;3.70;;;22.50;99.90;;;;;;5053491;28;20428;-42
2022/08/01 00:43:27;;;;;;;5.40;4.67;;;22.40;99.90;;;;;;5039735;28;20437;-50
2022/08/01 00:45:55;;;;;;;4.60;4.20;;;22.50;99.90;;;;;;5052355;28;20458;-42
2022/08/01 00:48:28;;;;;;;4.27;3.97;;;22.50;99.90;;;;;;5053619;28;20437;-50
2022/08/01 00:50:55;;;;;;;4.20;3.80;;;22.50;99.90;;;;;;5052022;28;20928;-41
2022/08/01 00:53:22;;;;;;;6.57;4.60;;;22.40;99.90;;;;;;5053350;28;20456;-46
2022/08/01 00:55:49;;;;;;;4.37;3.97;;;22.30;99.90;;;;;;5053080;28;20479;-52
2022/08/01 00:58:16;;;;;;;4.13;3.67;;;22.30;99.90;;;;;;5051366;28;20432;-46
2022/08/01 01:00:42;;;;;;;5.17;4.07;;;22.30;99.90;;;;;;5052446;28;20457;-41
2022/08/01 01:03:10;;;;;;;4.10;3.70;;;22.30;99.90;;;;;;5052999;28;20441;-45
2022/08/01 01:05:46;;;;;;;5.90;4.67;;;22.20;99.90;;;;;;5052895;28;20532;-48
2022/08/01 01:08:20;;;;;;;5.07;4.27;;;22.20;99.90;;;;;;5052924;28;20436;-45
2022/08/01 01:10:52;;;;;;;4.47;4.07;;;22.20;99.90;;;;;;5051975;28;20463;-41
2022/08/01 01:13:27;;;;;;;5.23;4.40;;;22.20;99.90;;;;;;5053386;28;20460;-43
2022/08/01 01:15:59;;;;;;;4.20;3.80;;;22.10;99.90;;;;;;5053423;28;20488;-44
2022/08/01 01:18:33;;;;;;;3.83;3.50;;;22.00;99.90;;;;;;5052819;28;20492;-44
2022/08/01 01:21:06;;;;;;;6.83;4.10;;;22.00;99.90;;;;;;5052017;28;20499;-46
2022/08/01 01:23:46;;;;;;;4.43;4.03;;;22.00;99.90;;;;;;5052945;28;20442;-47
2022/08/01 01:26:29;;;;;;;3.97;3.57;;;22.00;99.90;;;;;;5052709;28;20468;-49
2022/08/01 01:29:04;;;;;;;4.10;3.80;;;21.90;99.90;;;;;;5052800;28;20435;-44
2022/08/01 01:31:37;;;;;;;5.50;4.37;;;22.00;99.90;;;;;;5052703;28;20450;-37
2022/08/01 01:34:07;;;;;;;5.20;4.70;;;22.00;99.90;;;;;;5052735;28;20504;-47
2022/08/01 01:36:39;;;;;;;4.27;3.87;;;22.00;99.90;;;;;;5052829;28;20450;-43
2022/08/01 01:39:06;;;;;;;3.93;3.60;;;22.00;99.90;;;;;;5052689;28;20457;-42
2022/08/01 01:41:35;;;;;;;4.37;3.97;;;21.90;99.90;;;;;;5052578;28;20445;-41
2022/08/01 01:44:09;;;;;;;4.27;3.90;;;22.00;99.90;;;;;;5052751;28;20470;-40
2022/08/01 01:46:37;;;;;;;5.33;4.70;;;21.90;99.90;;;;;;5051910;28;20520;-47
2022/08/01 01:49:06;;;;;;;5.30;4.80;;;21.90;99.90;;;;;;5050299;28;20444;-47
2022/08/01 01:51:33;;;;;;;4.23;3.83;;;21.90;99.90;;;;;;5051587;28;20424;-46
2022/08/01 01:54:01;;;;;;;6.20;4.53;;;21.90;99.90;;;;;;5052485;28;20527;-40
2022/08/01 01:56:30;;;;;;;4.33;3.93;;;22.00;99.90;;;;;;5052331;28;20463;-41
2022/08/01 01:59:07;;;;;;;4.97;4.47;;;22.00;99.90;;;;;;5052610;28;20479;-41
2022/08/01 02:01:40;;;;;;;5.80;3.93;;;22.00;99.90;;;;;;5054024;28;20491;-42
2022/08/01 02:04:07;;;;;;;4.67;4.27;;;22.00;99.90;;;;;;5052644;28;20496;-43
2022/08/01 02:06:35;;;;;;;4.40;4.00;;;21.90;99.90;;;;;;5052711;28;20467;-45
2022/08/01 02:09:08;;;;;;;5.20;4.40;;;21.80;99.90;;;;;;5052609;28;20437;-40
2022/08/01 02:11:36;;;;;;;4.43;4.03;;;21.80;99.90;;;;;;5052391;28;20444;-45
2022/08/01 02:14:04;;;;;;;4.83;4.43;;;21.80;99.90;;;;;;5051451;28;20516;-44
2022/08/01 02:16:37;;;;;;;4.63;4.20;;;21.80;99.90;;;;;;5051945;28;20476;-41
2022/08/01 02:19:04;;;;;;;10.87;4.70;;;21.80;99.90;;;;;;5051037;28;20480;-45
2022/08/01 02:21:34;;;;;;;6.83;5.20;;;21.80;99.90;;;;;;5051696;28;20455;-46
2022/08/01 02:24:14;;;;;;;4.30;3.90;;;21.70;99.90;;;;;;5051507;28;20435;-53
2022/08/01 02:26:47;;;;;;;8.33;4.57;;;21.60;99.90;;;;;;5051617;28;20495;-41
2022/08/01 02:29:20;;;;;;;4.53;4.13;;;21.60;99.90;;;;;;5051644;28;20445;-49
2022/08/01 02:31:55;;;;;;;4.67;4.27;;;21.40;99.90;;;;;;5043071;28;20511;-53
2022/08/01 02:34:24;;;;;;;6.23;5.20;;;21.30;99.90;;;;;;5044095;28;20482;-42
2022/08/01 02:36:55;;;;;;;5.80;5.30;;;21.30;99.90;;;;;;5051741;28;20452;-47
2022/08/01 02:39:27;;;;;;;7.20;4.63;;;21.20;99.90;;;;;;5040778;28;20448;-53
2022/08/01 02:42:03;;;;;;;5.37;4.87;;;21.20;99.90;;;;;;5044431;28;20471;-47
2022/08/01 02:44:36;;;;;;;5.70;4.50;;;21.20;99.90;;;;;;5051150;28;20511;-53
2022/08/01 02:47:04;;;;;;;5.47;4.80;;;21.10;99.90;;;;;;5051633;28;20475;-50
2022/08/01 02:49:38;;;;;;;4.70;4.13;;;21.10;99.90;;;;;;5050621;28;20470;-40
2022/08/01 02:52:08;;;;;;;5.97;4.70;;;21.10;99.90;;;;;;5050876;28;20470;-44
2022/08/01 02:54:43;;;;;;;5.37;4.27;;;21.20;99.90;;;;;;5034968;28;20612;-54
2022/08/01 02:57:18;;;;;;;5.83;4.30;;;21.20;99.90;;;;;;5055352;28;20472;-50
2022/08/01 02:59:48;;;;;;;5.40;4.90;;;21.30;99.90;;;;;;5054011;28;20416;-47
2022/08/01 03:02:18;;;;;;;5.00;4.60;;;21.20;99.90;;;;;;5054208;28;20401;-40
2022/08/01 03:04:46;;;;;;;5.70;5.20;;;21.20;99.90;;;;;;5038568;28;20453;-51
2022/08/01 03:07:14;;;;;;;5.80;5.13;;;21.10;99.90;;;;;;5053470;28;20469;-45
2022/08/01 03:09:44;;;;;;;5.77;5.27;;;21.10;99.90;;;;;;5054637;28;20436;-44
2022/08/01 03:12:24;;;;;;;5.83;4.77;;;21.10;99.90;;;;;;5054884;28;20448;-50
2022/08/01 03:14:54;;;;;;;6.50;5.90;;;21.10;99.90;;;;;;5054255;28;20478;-44
2022/08/01 03:17:25;;;;;;;5.93;4.80;;;21.10;99.90;;;;;;5054443;28;20525;-52
2022/08/01 03:19:55;;;;;;;6.13;4.30;;;21.10;99.90;;;;;;5053855;28;20433;-43
2022/08/01 03:22:24;;;;;;;5.20;4.63;;;21.10;99.90;;;;;;5054712;28;20440;-44
2022/08/01 03:24:53;;;;;;;4.43;4.03;;;21.00;99.90;;;;;;5054556;28;20492;-44
2022/08/01 03:27:22;;;;;;;5.77;5.27;;;21.10;99.90;;;;;;5054488;28;20532;-48
2022/08/01 03:29:50;;;;;;;6.80;5.13;;;21.10;99.90;;;;;;5054790;28;20444;-41
2022/08/01 03:32:23;;;;;;;5.20;4.67;;;21.10;99.90;;;;;;5055567;27;20504;-45
2022/08/01 03:34:54;;;;;;;5.27;4.77;;;21.20;99.90;;;;;;5053265;28;20512;-49
2022/08/01 03:37:25;;;;;;;6.70;5.00;;;21.10;99.90;;;;;;5053859;28;20508;-43
2022/08/01 03:40:14;;;;;;;5.13;4.73;;;21.00;99.90;;;;;;5053325;28;20424;-49
2022/08/01 03:42:47;;;;;;;6.13;4.60;;;21.00;99.90;;;;;;5054676;28;20910;-49
2022/08/01 03:45:23;;;;;;;6.37;4.90;;;20.90;99.90;;;;;;5054631;28;20437;-46
2022/08/01 03:47:56;;;;;;;4.90;4.40;;;20.90;99.90;;;;;;5054027;28;20453;-46
2022/08/01 03:50:33;;;;;;;5.37;4.87;;;21.00;99.90;;;;;;5054654;28;20424;-46
2022/08/01 03:53:02;;;;;;;5.73;5.23;;;20.90;99.90;;;;;;5053894;28;20439;-49
2022/08/01 03:55:32;;;;;;;6.80;4.10;;;21.00;99.90;;;;;;5053437;28;20495;-52
2022/08/01 03:58:06;;;;;;;5.60;4.13;;;21.00;99.90;;;;;;5053686;28;20452;-43
2022/08/01 04:00:33;;;;;;;7.03;4.90;;;21.10;99.90;;;;;;5053642;28;20627;-51
2022/08/01 04:03:02;;;;;;;5.50;4.60;;;21.10;99.90;;;;;;5053680;28;20547;-46
2022/08/01 04:05:29;;;;;;;5.60;4.30;;;21.10;99.90;;;;;;5051202;28;20500;-43
2022/08/01 04:08:01;;;;;;;5.27;4.80;;;21.10;99.90;;;;;;5052933;28;20472;-49
2022/08/01 04:10:31;;;;;;;8.03;4.70;;;21.00;99.90;;;;;;5054140;28;20452;-43
2022/08/01 04:12:59;;;;;;;5.50;4.73;;;21.00;99.90;;;;;;5053310;28;20468;-48
2022/08/01 04:15:28;;;;;;;6.97;5.13;;;21.00;99.90;;;;;;5053354;28;20448;-48
2022/08/01 04:17:57;;;;;;;7.13;5.90;;;21.00;99.90;;;;;;5053000;28;20440;-49
2022/08/01 04:20:25;;;;;;;6.07;5.47;;;21.00;99.90;;;;;;5053335;28;20479;-47
2022/08/01 04:22:52;;;;;;;9.53;6.07;;;21.00;99.90;;;;;;5053225;28;20428;-50
2022/08/01 04:25:29;;;;;;;7.33;6.37;;;21.00;99.90;;;;;;5052481;28;20535;-49
2022/08/01 04:27:59;;;;;;;7.60;5.97;;;21.00;99.90;;;;;;5053197;28;20450;-46
2022/08/01 04:30:29;;;;;;;11.47;6.10;;;21.00;99.90;;;;;;5052922;28;20476;-53
2022/08/01 04:33:01;;;;;;;9.63;5.63;;;21.00;99.90;;;;;;5052537;28;20508;-48
2022/08/01 04:35:37;;;;;;;8.53;5.60;;;21.10;99.90;;;;;;5052195;28;20484;-49
2022/08/01 04:38:12;;;;;;;6.37;5.60;;;21.00;99.90;;;;;;5052634;28;20511;-47
2022/08/01 04:40:42;;;;;;;7.20;5.33;;;21.00;99.90;;;;;;5052950;28;20412;-39
2022/08/01 04:43:09;;;;;;;9.33;6.43;;;21.00;99.90;;;;;;5052219;28;20523;-48
2022/08/01 04:45:36;;;;;;;6.87;5.30;;;21.00;99.90;;;;;;5052177;28;20437;-58
2022/08/01 04:48:09;;;;;;;5.63;4.93;;;20.90;99.90;;;;;;5051501;28;20923;-48
2022/08/01 04:50:37;;;;;;;9.57;5.33;;;20.90;99.90;;;;;;5051133;28;20476;-51
2022/08/01 04:53:04;;;;;;;7.53;5.57;;;20.90;99.90;;;;;;5050847;28;20504;-56
2022/08/01 04:55:32;;;;;;;8.43;6.13;;;20.90;99.90;;;;;;5050709;28;20495;-46
2022/08/01 04:57:58;;;;;;;8.03;6.80;;;20.90;99.90;;;;;;5051509;28;20451;-45
2022/08/01 05:00:28;;;;;;;11.43;6.50;;;20.80;99.90;;;;;;5051192;28;20492;-49
2022/08/01 05:02:55;;;;;;;7.23;6.30;;;20.80;99.90;;;;;;5051034;28;20440;-51
2022/08/01 05:05:22;;;;;;;7.27;6.50;;;20.80;99.90;;;;;;5051476;28;20488;-50
2022/08/01 05:07:50;;;;;;;8.43;7.57;;;20.70;99.90;;;;;;5051322;28;20452;-50
2022/08/01 05:10:17;;;;;;;8.13;7.27;;;20.70;99.90;;;;;;5051071;28;20508;-52
2022/08/01 05:12:43;;;;;;;8.27;7.23;;;20.70;99.90;;;;;;5051358;28;20452;-44
2022/08/01 05:15:10;;;;;;;9.97;7.43;;;20.70;99.90;;;;;;5051704;28;20498;-48
2022/08/01 05:17:37;;;;;;;8.70;7.33;;;20.80;99.90;;;;;;5052134;28;20491;-55
2022/08/01 05:20:06;;;;;;;8.10;7.30;;;20.80;99.90;;;;;;5052202;28;20460;-55
2022/08/01 05:22:33;;;;;;;7.40;6.67;;;20.80;99.90;;;;;;5052839;28;20499;-56
2022/08/01 05:25:01;;;;;;;7.43;6.63;;;20.80;99.90;;;;;;5053010;28;20477;-52
2022/08/01 05:27:28;;;;;;;7.27;6.57;;;20.80;99.90;;;;;;5052502;28;20436;-47
2022/08/01 05:29:55;;;;;;;6.60;5.90;;;20.90;99.90;;;;;;5051274;28;20509;-52
2022/08/01 05:32:24;;;;;;;7.80;6.97;;;20.90;99.90;;;;;;5052027;28;20452;-48
2022/08/01 05:34:53;;;;;;;9.10;7.10;;;20.90;99.90;;;;;;5050906;28;20536;-47
2022/08/01 05:37:26;;;;;;;12.07;6.67;;;20.90;99.90;;;;;;5051250;28;20452;-48
2022/08/01 05:39:53;;;;;;;8.67;6.70;;;20.90;99.90;;;;;;5050755;28;20491;-53
2022/08/01 05:42:21;;;;;;;6.47;5.87;;;20.90;99.90;;;;;;5050825;28;20452;-50
2022/08/01 05:44:49;;;;;;;7.43;6.53;;;21.00;99.90;;;;;;5051316;28;20543;-51
2022/08/01 05:47:20;;;;;;;10.10;6.20;;;21.10;99.90;;;;;;5047739;28;20428;-47
2022/08/01 05:49:47;;;;;;;6.87;6.03;;;21.10;99.90;;;;;;5049936;28;20539;-55
2022/08/01 05:52:14;;;;;;;8.87;6.43;;;21.20;99.90;;;;;;5045550;28;20492;-55
2022/08/01 05:54:41;;;;;;;5.97;5.20;;;21.20;99.90;;;;;;5038955;28;20467;-49
2022/08/01 05:57:08;;;;;;;6.87;6.17;;;21.20;99.90;;;;;;5040518;28;20460;-55
2022/08/01 05:59:36;;;;;;;5.70;4.77;;;21.20;99.90;;;;;;5044172;28;20541;-51
2022/08/01 06:02:03;;;;;;;5.90;4.80;;;21.20;99.90;;;;;;5037136;28;20464;-52
2022/08/01 06:04:29;;;;;;;6.27;5.67;;;21.30;99.90;;;;;;5047860;28;20448;-52
2022/08/01 06:06:56;;;;;;;5.77;5.17;;;21.30;99.90;;;;;;5048857;28;20471;-47
2022/08/01 06:09:23;;;;;;;6.50;5.10;;;21.40;99.90;;;;;;5050772;28;20476;-48
2022/08/01 06:11:50;;;;;;;5.63;4.47;;;21.50;99.90;;;;;;5049944;28;20451;-51
2022/08/01 06:14:17;;;;;;;5.23;4.57;;;21.60;99.90;;;;;;5049100;28;20487;-63
2022/08/01 06:16:45;;;;;;;4.90;4.40;;;21.70;99.90;;;;;;5050505;28;20484;-53
2022/08/01 06:19:12;;;;;;;6.50;4.70;;;21.80;99.90;;;;;;5050501;28;20446;-50
2022/08/01 06:21:39;;;;;;;7.00;5.00;;;21.90;99.90;;;;;;5050072;28;20511;-53
2022/08/01 06:24:06;;;;;;;5.50;4.57;;;22.00;99.90;;;;;;5049557;28;20468;-52
2022/08/01 06:26:33;;;;;;;6.37;4.80;;;22.00;99.90;;;;;;5049900;28;20435;-55
2022/08/01 06:29:00;;;;;;;5.50;4.80;;;21.80;99.90;;;;;;5050528;28;20459;-51
2022/08/01 06:31:27;;;;;;;6.07;4.40;;;21.90;99.90;;;;;;5053677;28;20504;-52
2022/08/01 06:33:56;;;;;;;8.63;5.13;;;21.80;99.90;;;;;;5052755;28;20857;-51
2022/08/01 06:36:23;;;;;;;8.20;5.43;;;21.70;99.90;;;;;;5053153;28;20492;-50
2022/08/01 06:38:50;;;;;;;8.43;5.20;;;21.50;99.90;;;;;;5053312;28;20511;-48
2022/08/01 06:41:17;;;;;;;9.07;5.30;;;21.40;99.90;;;;;;5052769;28;20472;-45
2022/08/01 06:43:44;;;;;;;6.40;5.30;;;21.50;99.90;;;;;;5053090;28;20475;-40
2022/08/01 06:46:10;;;;;;;6.80;5.77;;;21.40;99.90;;;;;;5052165;28;20460;-46
2022/08/01 06:48:39;;;;;;;5.93;4.40;;;21.40;99.90;;;;;;5052875;28;20536;-48
2022/08/01 06:51:13;;;;;;;5.93;4.70;;;21.50;99.90;;;;;;5053117;28;20481;-48
2022/08/01 06:53:40;;;;;;;4.30;3.90;;;21.70;99.90;;;;;;5053160;28;20451;-52
2022/08/01 06:56:09;;;;;;;4.70;4.20;;;21.80;99.90;;;;;;5052838;28;20552;-54
2022/08/01 06:58:36;;;;;;;5.80;3.87;;;21.80;99.90;;;;;;5052721;28;20467;-45
2022/08/01 07:01:05;;;;;;;4.20;3.80;;;21.90;99.90;;;;;;5051709;28;20451;-48
2022/08/01 07:03:32;;;;;;;4.57;4.17;;;21.90;99.90;;;;;;5053388;28;20482;-53
2022/08/01 07:05:59;;;;;;;8.20;4.20;;;21.80;99.90;;;;;;5053595;28;20440;-49
2022/08/01 07:08:27;;;;;;;5.80;4.30;;;21.80;99.90;;;;;;5053679;28;20429;-45
2022/08/01 07:10:59;;;;;;;6.53;4.03;;;21.90;99.90;;;;;;5053087;28;20464;-49
2022/08/01 07:13:26;;;;;;;4.90;4.50;;;21.90;99.90;;;;;;5054501;28;20421;-39
2022/08/01 07:15:53;;;;;;;4.57;4.17;;;21.80;99.90;;;;;;5053693;28;20547;-46
2022/08/01 07:18:20;;;;;;;10.30;3.77;;;21.80;99.90;;;;;;5053875;28;20524;-46
2022/08/01 07:20:47;;;;;;;7.10;2.87;;;21.80;99.90;;;;;;5054477;28;20468;-47
2022/08/01 07:23:14;;;;;;;4.70;3.70;;;21.90;99.90;;;;;;5053595;28;20525;-45
2022/08/01 07:25:43;;;;;;;2.97;2.53;;;21.90;99.90;;;;;;5055078;28;20507;-42
2022/08/01 07:28:09;;;;;;;4.10;2.93;;;21.90;99.90;;;;;;5053765;28;20496;-50
2022/08/01 07:30:36;;;;;;;3.97;3.20;;;22.00;99.90;;;;;;5054302;28;20452;-45
2022/08/01 07:33:06;;;;;;;4.17;3.53;;;22.00;99.90;;;;;;5054126;28;20436;-45
2022/08/01 07:35:33;;;;;;;3.37;2.70;;;21.90;99.90;;;;;;5053676;28;20460;-54
2022/08/01 07:37:59;;;;;;;5.00;3.60;;;21.90;99.90;;;;;;5052604;28;20444;-48
2022/08/01 07:40:26;;;;;;;3.47;3.17;;;21.80;99.90;;;;;;5051185;28;20472;-43
2022/08/01 07:42:54;;;;;;;3.20;2.70;;;21.80;99.90;;;;;;5053206;28;20447;-53
2022/08/01 07:45:21;;;;;;;3.83;2.97;;;21.80;99.90;;;;;;5053180;28;20472;-47
2022/08/01 07:47:50;;;;;;;4.77;2.90;;;21.70;99.90;;;;;;5054464;28;20445;-46
2022/08/01 07:50:17;;;;;;;3.50;2.67;;;21.80;99.90;;;;;;5053270;28;20448;-42
2022/08/01 07:52:44;;;;;;;2.90;2.53;;;21.80;99.90;;;;;;5053558;28;20512;-55
2022/08/01 07:55:12;;;;;;;2.70;2.30;;;22.00;99.90;;;;;;5052750;28;20477;-47
2022/08/01 07:57:39;;;;;;;3.07;2.77;;;22.10;99.90;;;;;;5054089;28;20475;-50
2022/08/01 08:00:09;;;;;;;3.10;2.80;;;22.40;99.90;;;;;;5053641;28;20484;-42
2022/08/01 08:02:36;;;;;;;3.10;2.80;;;22.50;99.90;;;;;;5054220;28;20470;-47
2022/08/01 08:05:04;;;;;;;4.43;2.70;;;22.50;99.90;;;;;;5053816;28;20448;-41
2022/08/01 08:07:31;;;;;;;5.57;2.93;;;22.60;99.90;;;;;;5053382;28;20950;-49
2022/08/01 08:09:58;;;;;;;4.10;2.77;;;22.60;99.90;;;;;;5053084;28;20454;-43
2022/08/01 08:12:25;;;;;;;3.80;2.37;;;22.70;99.90;;;;;;5053052;28;20464;-48
2022/08/01 08:14:53;;;;;;;2.57;2.37;;;22.60;99.90;;;;;;5053459;28;20442;-49
2022/08/01 08:17:21;;;;;;;3.47;3.17;;;22.60;99.90;;;;;;5052874;28;20503;-50
2022/08/01 08:19:48;;;;;;;3.03;2.57;;;22.50;99.90;;;;;;5053291;28;20483;-46
2022/08/01 08:22:15;;;;;;;3.50;3.20;;;22.40;99.90;;;;;;5052841;28;20508;-43
2022/08/01 08:24:42;;;;;;;5.40;4.90;;;22.30;99.90;;;;;;5052940;28;20503;-44
2022/08/01 08:27:09;;;;;;;4.43;4.00;;;22.30;99.90;;;;;;5052860;28;20551;-49
2022/08/01 08:29:36;;;;;;;5.53;4.07;;;22.20;99.90;;;;;;5052692;28;20460;-49
2022/08/01 08:32:02;;;;;;;6.00;4.27;;;22.10;99.90;;;;;;5053049;28;20455;-46
2022/08/01 08:34:31;;;;;;;4.70;3.57;;;21.90;99.90;;;;;;5052465;28;20445;-50
2022/08/01 08:36:59;;;;;;;4.10;3.70;;;21.90;99.90;;;;;;5052552;28;20486;-42
2022/08/01 08:39:29;;;;;;;5.73;3.90;;;21.90;99.90;;;;;;5052457;28;20437;-45
2022/08/01 08:41:57;;;;;;;4.17;3.77;;;21.90;99.90;;;;;;5052855;28;20445;-45
2022/08/01 08:44:24;;;;;;;4.90;3.40;;;21.90;99.90;;;;;;5053073;28;20513;-49
2022/08/01 08:46:52;;;;;;;4.20;3.80;;;22.00;99.90;;;;;;5052815;28;20476;-45
2022/08/01 08:49:22;;;;;;;4.07;3.20;;;22.10;99.90;;;;;;5052711;28;20452;-51
2022/08/01 08:51:52;;;;;;;4.70;3.53;;;22.10;99.90;;;;;;5052766;28;20475;-50
2022/08/01 08:54:21;;;;;;;4.20;3.80;;;22.20;99.90;;;;;;5052664;28;20504;-43
2022/08/01 08:56:49;;;;;;;3.87;2.73;;;22.30;99.90;;;;;;5052192;28;20988;-44
2022/08/01 08:59:16;;;;;;;3.40;3.10;;;22.50;99.90;;;;;;5052853;28;20447;-54
2022/08/01 09:01:44;;;;;;;3.50;3.20;;;22.70;99.90;;;;;;5052779;28;20500;-49
2022/08/01 09:04:11;;;;;;;4.23;3.83;;;22.80;99.90;;;;;;5051890;28;20557;-51
2022/08/01 09:06:39;;;;;;;3.83;3.40;;;22.80;99.90;;;;;;5051732;28;20492;-49
2022/08/01 09:09:17;;;;;;;3.83;3.00;;;22.80;99.90;;;;;;5052139;28;20455;-55
2022/08/01 09:11:44;;;;;;;3.97;2.93;;;22.80;99.90;;;;;;5051983;28;20479;-44
2022/08/01 09:14:13;;;;;;;3.67;2.10;;;22.90;99.90;;;;;;5051694;28;20483;-51
2022/08/01 09:16:42;;;;;;;2.80;2.20;;;23.00;99.90;;;;;;5051756;28;20480;-50
2022/08/01 09:19:12;;;;;;;1.50;1.40;;;23.20;99.90;;;;;;5051483;28;20446;-49
2022/08/01 09:21:40;;;;;;;2.07;1.87;;;23.30;99.90;;;;;;5051518;28;20475;-46
2022/08/01 09:24:17;;;;;;;1.50;1.40;;;23.30;99.90;;;;;;5051650;28;20448;-51
2022/08/01 09:26:45;;;;;;;4.03;1.80;;;23.20;99.90;;;;;;5051647;28;20776;-47
2022/08/01 09:29:20;;;;;;;2.43;1.67;;;23.20;99.90;;;;;;5051608;28;20494;-43
2022/08/01 09:31:47;;;;;;;1.70;1.53;;;23.10;99.90;;;;;;5051482;28;20554;-48
2022/08/01 09:34:15;;;;;;;1.70;1.17;;;23.00;99.90;;;;;;5051510;28;20436;-46
2022/08/01 09:36:51;;;;;;;2.30;2.10;;;22.90;99.90;;;;;;5051221;28;20544;-44
2022/08/01 09:39:20;;;;;;;2.17;1.97;;;22.90;99.90;;;;;;5051943;28;20436;-48
2022/08/01 09:41:48;;;;;;;3.20;2.30;;;22.80;99.90;;;;;;5051273;28;20452;-40
2022/08/01 09:44:20;;;;;;;2.47;1.73;;;22.80;99.90;;;;;;5051165;28;20443;-50
2022/08/01 09:46:51;;;;;;;2.20;1.63;;;22.90;99.90;;;;;;5050779;28;20420;-46
2022/08/01 09:49:30;;;;;;;2.20;2.00;;;23.00;99.90;;;;;;5051105;28;20516;-50
2022/08/01 09:51:58;;;;;;;2.10;1.90;;;23.10;99.90;;;;;;5050936;28;20440;-46
2022/08/01 09:54:33;;;;;;;2.10;1.90;;;23.20;99.90;;;;;;5050546;28;20484;-46
2022/08/01 09:57:16;;;;;;;4.20;2.10;;;23.30;99.90;;;;;;5050110;28;20483;-47
2022/08/01 09:59:45;;;;;;;2.23;2.03;;;23.20;99.90;;;;;;5050675;28;20425;-47
2022/08/01 10:02:15;;;;;;;4.70;2.00;;;23.10;99.90;;;;;;5050881;28;20535;-50
2022/08/01 10:04:52;;;;;;;3.73;2.33;;;23.10;99.90;;;;;;5050477;28;20503;-49
2022/08/01 10:07:19;;;;;;;2.10;1.90;;;23.00;99.90;;;;;;5051218;28;20535;-44
2022/08/01 10:09:48;;;;;;;3.80;2.60;;;22.90;99.90;;;;;;5051164;28;20481;-44
2022/08/01 10:12:18;;;;;;;2.20;2.00;;;22.90;99.90;;;;;;5051188;28;20444;-46
2022/08/01 10:14:49;;;;;;;2.73;2.43;;;22.90;99.90;;;;;;5051488;28;20468;-49
2022/08/01 10:17:17;;;;;;;2.20;2.00;;;22.80;99.90;;;;;;5051034;28;20480;-49
2022/08/01 10:19:45;;;;;;;2.60;2.20;;;22.70;99.90;;;;;;5051120;28;20487;-41
2022/08/01 10:22:16;;;;;;;2.30;1.90;;;22.80;99.90;;;;;;5050796;28;20435;-45
2022/08/01 10:24:45;;;;;;;2.50;2.23;;;22.90;99.90;;;;;;5051203;28;20429;-48
2022/08/01 10:27:15;;;;;;;5.07;2.00;;;23.00;99.90;;;;;;5050721;28;20463;-43
2022/08/01 10:29:50;;;;;;;3.20;3.00;;;23.20;99.90;;;;;;5040207;28;20488;-46
2022/08/01 10:32:18;;;;;;;2.03;1.77;;;23.30;99.90;;;;;;5047847;28;20432;-50
2022/08/01 10:34:46;;;;;;;2.27;1.93;;;23.40;99.90;;;;;;5041563;28;20535;-47
2022/08/01 10:37:16;;;;;;;1.80;1.70;;;23.50;99.90;;;;;;5041719;28;20711;-47
2022/08/01 10:39:43;;;;;;;2.20;1.73;;;23.50;99.90;;;;;;5037675;28;20469;-52
2022/08/01 10:42:12;;;;;;;1.80;1.50;;;23.50;99.90;;;;;;5042099;28;20609;-45
2022/08/01 10:44:41;;;;;;;2.70;2.23;;;23.40;99.90;;;;;;5042553;28;20453;-48
2022/08/01 10:47:10;;;;;;;3.20;1.70;;;23.40;99.90;;;;;;5039121;28;20444;-44
2022/08/01 10:49:43;;;;;;;1.97;1.77;;;23.30;99.90;;;;;;5039878;28;20887;-51
2022/08/01 10:52:15;;;;;;;1.97;1.57;;;23.30;99.90;;;;;;5038636;28;20543;-52
2022/08/01 10:54:42;;;;;;;2.03;1.83;;;23.20;99.90;;;;;;5036515;28;20433;-46
2022/08/01 10:57:10;;;;;;;2.23;2.00;;;23.20;99.90;;;;;;5036130;28;20480;-49
2022/08/01 10:59:49;;;;;;;1.90;1.47;;;23.20;99.90;;;;;;5044759;28;20507;-46
2022/08/01 11:02:28;;;;;;;2.20;2.00;;;23.20;99.90;;;;;;5050294;28;20500;-45
2022/08/01 11:04:58;;;;;;;1.87;1.77;;;23.30;99.90;;;;;;5050341;28;20513;-40
2022/08/01 11:07:42;;;;;;;6.40;1.90;;;23.40;99.90;;;;;;5050376;28;20468;-48
2022/08/01 11:10:17;;;;;;;2.43;1.50;;;23.50;99.90;;;;;;5049648;28;20416;-43
2022/08/01 11:12:44;;;;;;;1.90;1.60;;;23.60;99.90;;;;;;5050379;28;20491;-47
2022/08/01 11:15:26;;;;;;;2.80;1.93;;;23.60;99.90;;;;;;5050940;28;20459;-40
2022/08/01 11:17:54;;;;;;;1.77;1.67;;;23.70;99.90;;;;;;5053752;28;20499;-46
2022/08/01 11:20:22;;;;;;;2.30;1.60;;;23.90;99.90;;;;;;5054042;28;20428;-44
2022/08/01 11:23:33;;;;;;;1.87;1.67;;;23.90;99.90;;;;;;5054148;28;20436;-42
2022/08/01 11:26:21;;;;;;;2.00;1.80;;;23.90;99.90;;;;;;5053609;28;20497;-44
2022/08/01 11:29:12;;;;;;;1.83;1.30;;;24.00;99.90;;;;;;5053517;28;20425;-45
2022/08/01 11:31:40;;;;;;;1.47;1.30;;;23.80;99.90;;;;;;5053405;28;20572;-43
2022/08/01 11:34:07;;;;;;;1.57;1.47;;;23.70;99.90;;;;;;5053786;28;20448;-45
2022/08/01 11:36:35;;;;;;;1.90;1.70;;;23.50;99.90;;;;;;5052877;28;20909;-44
2022/08/01 11:39:19;;;;;;;2.70;2.03;;;23.40;99.90;;;;;;5053240;28;20530;-49
2022/08/01 11:41:48;;;;;;;3.70;2.00;;;23.30;99.90;;;;;;5052528;28;20429;-42
2022/08/01 11:44:18;;;;;;;1.80;1.50;;;23.10;99.90;;;;;;5053130;28;20528;-50
2022/08/01 11:47:01;;;;;;;3.67;1.87;;;23.00;99.90;;;;;;5052874;28;20427;-43
2022/08/01 11:49:32;;;;;;;2.10;1.90;;;22.90;99.90;;;;;;5053305;28;20425;-47
2022/08/01 11:52:00;;;;;;;1.60;1.50;;;23.00;99.90;;;;;;5053026;28;20432;-41
2022/08/01 11:54:29;;;;;;;2.00;1.90;;;23.00;99.90;;;;;;5052671;28;20479;-49
2022/08/01 11:56:57;;;;;;;2.17;1.60;;;23.00;99.90;;;;;;5052586;28;20492;-48
2022/08/01 11:59:24;;;;;;;2.77;1.20;;;23.00;99.90;;;;;;5052956;28;20451;-45
2022/08/01 12:01:51;;;;;;;3.37;1.80;;;23.20;99.90;;;;;;5052659;28;20448;-50
2022/08/01 12:04:20;;;;;;;1.37;1.27;;;23.20;99.90;;;;;;5052205;28;20499;-46
2022/08/01 12:06:47;;;;;;;1.50;1.33;;;23.30;99.90;;;;;;5052675;28;20448;-44
2022/08/01 12:09:19;;;;;;;1.97;1.63;;;23.30;99.90;;;;;;5052512;28;20449;-41
2022/08/01 12:11:47;;;;;;;2.03;1.83;;;23.40;99.90;;;;;;5052984;28;20504;-40
2022/08/01 12:14:20;;;;;;;2.00;1.53;;;23.60;99.90;;;;;;5052793;28;20456;-50
2022/08/01 12:16:52;;;;;;;1.60;1.50;;;23.60;99.90;;;;;;5052568;28;20488;-51
2022/08/01 12:19:23;;;;;;;1.87;1.53;;;23.80;99.90;;;;;;5052186;28;20468;-50
2022/08/01 12:22:09;;;;;;;1.70;1.40;;;24.00;99.90;;;;;;5052468;28;20503;-40
2022/08/01 12:24:36;;;;;;;2.70;1.60;;;24.40;99.90;;;;;;5053121;28;20450;-40
2022/08/01 12:27:04;;;;;;;2.13;1.33;;;24.70;99.90;;;;;;5052795;28;20448;-41
2022/08/01 12:29:39;;;;;;;1.80;1.40;;;25.00;99.90;;;;;;5053377;28;20495;-44
2022/08/01 12:34:38;;;;;;;1.30;1.20;;;25.20;99.90;;;;;;5074674;28;20512;-45
2022/08/01 12:37:05;;;;;;;3.13;1.53;;;25.20;99.90;;;;;;5076115;28;20479;-47
2022/08/01 12:39:35;;;;;;;1.93;1.57;;;25.40;99.90;;;;;;5075870;28;20523;-48
2022/08/01 12:42:07;;;;;;;1.60;1.50;;;25.60;99.90;;;;;;5076708;28;20470;-51
2022/08/01 12:44:34;;;;;;;1.77;1.50;;;25.70;99.90;;;;;;5076438;28;20498;-49
2022/08/01 12:47:02;;;;;;;1.30;1.20;;;25.90;99.90;;;;;;5076041;28;20428;-42
2022/08/01 12:49:29;;;;;;;1.50;1.40;;;26.00;99.90;;;;;;5075362;28;20432;-49
2022/08/01 12:51:58;;;;;;;2.33;1.50;;;25.90;99.90;;;;;;5075936;28;20455;-47
2022/08/01 12:54:26;;;;;;;1.33;1.23;;;25.70;99.90;;;;;;5074285;28;20467;-44
2022/08/01 12:56:56;;;;;;;2.13;1.70;;;25.60;99.90;;;;;;5061621;28;20443;-54
2022/08/01 12:59:26;;;;;;;1.50;1.30;;;25.60;99.90;;;;;;5074226;28;20442;-48
2022/08/01 13:01:53;;;;;;;1.90;1.70;;;25.70;99.90;;;;;;5075239;28;20525;-50